sensor_id;sensor_type;location;lat;lon;timestamp;temperature;humidity
42187;DHT22;27858;51.414;0.018;2023-08-06T00:00:24;13.50;99.90
42187;DHT22;27858;51.414;0.018;2023-08-06T00:02:51;13.50;99.90
42187;DHT22;27858;51.414;0.018;2023-08-06T00:05:18;13.50;99.90
42187;DHT22;27858;51.414;0.018;2023-08-06T00:07:47;13.50;99.90
42187;DHT22;27858;51.414;0.018;2023-08-06T00:10:14;13.40;99.90
42187;DHT22;27858;51.414;0.018;2023-08-06T00:12:41;13.40;99.90
42187;DHT22;27858;51.414;0.018;2023-08-06T00:15:07;13.30;99.90
42187;DHT22;27858;51.414;0.018;2023-08-06T00:17:34;13.40;99.90
42187;DHT22;27858;51.414;0.018;2023-08-06T00:20:02;13.30;99.90
42187;DHT22;27858;51.414;0.018;2023-08-06T00:22:33;13.30;99.90
42187;DHT22;27858;51.414;0.018;2023-08-06T00:25:00;13.30;99.90
42187;DHT22;27858;51.414;0.018;2023-08-06T00:27:27;13.30;99.90
42187;DHT22;27858;51.414;0.018;2023-08-06T00:29:54;13.30;99.90
42187;DHT22;27858;51.414;0.018;2023-08-06T00:32:20;13.30;99.90
42187;DHT22;27858;51.414;0.018;2023-08-06T00:34:47;13.30;99.90
42187;DHT22;27858;51.414;0.018;2023-08-06T00:37:17;13.30;99.90
42187;DHT22;27858;51.414;0.018;2023-08-06T00:39:44;13.40;99.90
42187;DHT22;27858;51.414;0.018;2023-08-06T00:42:11;13.40;99.90
42187;DHT22;27858;51.414;0.018;2023-08-06T00:44:38;13.30;99.90
42187;DHT22;27858;51.414;0.018;2023-08-06T00:47:05;13.30;99.90
42187;DHT22;27858;51.414;0.018;2023-08-06T00:49:32;13.30;99.90
42187;DHT22;27858;51.414;0.018;2023-08-06T00:52:00;13.30;99.90
42187;DHT22;27858;51.414;0.018;2023-08-06T00:54:26;13.30;99.90
42187;DHT22;27858;51.414;0.018;2023-08-06T00:56:53;13.20;99.90
42187;DHT22;27858;51.414;0.018;2023-08-06T00:59:20;13.20;99.90
42187;DHT22;27858;51.414;0.018;2023-08-06T01:01:47;13.10;99.90
42187;DHT22;27858;51.414;0.018;2023-08-06T01:04:14;13.10;99.90
42187;DHT22;27858;51.414;0.018;2023-08-06T01:06:44;13.10;99.90
42187;DHT22;27858;51.414;0.018;2023-08-06T01:11:59;13.00;99.90
42187;DHT22;27858;51.414;0.018;2023-08-06T01:17:08;12.90;99.90
42187;DHT22;27858;51.414;0.018;2023-08-06T01:19:36;12.90;99.90
42187;DHT22;27858;51.414;0.018;2023-08-06T01:22:02;12.80;99.90
42187;DHT22;27858;51.414;0.018;2023-08-06T01:24:29;12.90;99.90
42187;DHT22;27858;51.414;0.018;2023-08-06T01:27:03;12.80;99.90
42187;DHT22;27858;51.414;0.018;2023-08-06T01:29:33;12.70;99.90
42187;DHT22;27858;51.414;0.018;2023-08-06T01:32:00;12.70;99.90
42187;DHT22;27858;51.414;0.018;2023-08-06T01:34:28;12.70;99.90
42187;DHT22;27858;51.414;0.018;2023-08-06T01:36:57;12.70;99.90
42187;DHT22;27858;51.414;0.018;2023-08-06T01:39:24;12.70;99.90
42187;DHT22;27858;51.414;0.018;2023-08-06T01:41:50;12.60;99.90
42187;DHT22;27858;51.414;0.018;2023-08-06T01:44:18;12.60;99.90
42187;DHT22;27858;51.414;0.018;2023-08-06T01:46:44;12.60;99.90
42187;DHT22;27858;51.414;0.018;2023-08-06T01:49:11;12.60;99.90
42187;DHT22;27858;51.414;0.018;2023-08-06T01:51:38;12.60;99.90
42187;DHT22;27858;51.414;0.018;2023-08-06T01:54:04;12.60;99.90
42187;DHT22;27858;51.414;0.018;2023-08-06T01:56:31;12.50;99.90
42187;DHT22;27858;51.414;0.018;2023-08-06T01:58:57;12.50;99.90
42187;DHT22;27858;51.414;0.018;2023-08-06T02:01:24;12.50;99.90
42187;DHT22;27858;51.414;0.018;2023-08-06T02:03:51;12.50;99.90
42187;DHT22;27858;51.414;0.018;2023-08-06T02:06:18;12.50;99.90
42187;DHT22;27858;51.414;0.018;2023-08-06T02:08:44;12.50;99.90
42187;DHT22;27858;51.414;0.018;2023-08-06T02:11:11;12.50;99.90
42187;DHT22;27858;51.414;0.018;2023-08-06T02:13:37;12.50;99.90
42187;DHT22;27858;51.414;0.018;2023-08-06T02:16:06;12.50;99.90
42187;DHT22;27858;51.414;0.018;2023-08-06T02:18:33;12.50;99.90
42187;DHT22;27858;51.414;0.018;2023-08-06T02:21:00;12.40;99.90
42187;DHT22;27858;51.414;0.018;2023-08-06T02:23:26;12.50;99.90
42187;DHT22;27858;51.414;0.018;2023-08-06T02:26:03;12.50;99.90
42187;DHT22;27858;51.414;0.018;2023-08-06T02:28:30;12.40;99.90
42187;DHT22;27858;51.414;0.018;2023-08-06T02:30:57;12.40;99.90
42187;DHT22;27858;51.414;0.018;2023-08-06T02:33:24;12.40;99.90
42187;DHT22;27858;51.414;0.018;2023-08-06T02:35:50;12.30;99.90
42187;DHT22;27858;51.414;0.018;2023-08-06T02:38:17;12.20;99.90
42187;DHT22;27858;51.414;0.018;2023-08-06T02:40:44;12.20;99.90
42187;DHT22;27858;51.414;0.018;2023-08-06T02:43:14;12.20;99.90
42187;DHT22;27858;51.414;0.018;2023-08-06T02:45:41;12.10;99.90
42187;DHT22;27858;51.414;0.018;2023-08-06T02:48:07;12.10;99.90
42187;DHT22;27858;51.414;0.018;2023-08-06T02:50:38;12.10;99.90
42187;DHT22;27858;51.414;0.018;2023-08-06T02:53:06;12.00;99.90
42187;DHT22;27858;51.414;0.018;2023-08-06T02:55:33;12.00;99.90
42187;DHT22;27858;51.414;0.018;2023-08-06T02:58:00;12.00;99.90
42187;DHT22;27858;51.414;0.018;2023-08-06T03:00:27;12.00;99.90
42187;DHT22;27858;51.414;0.018;2023-08-06T03:02:54;11.90;99.90
42187;DHT22;27858;51.414;0.018;2023-08-06T03:05:20;11.80;99.90
42187;DHT22;27858;51.414;0.018;2023-08-06T03:07:47;11.90;99.90
42187;DHT22;27858;51.414;0.018;2023-08-06T03:10:14;11.90;99.90
42187;DHT22;27858;51.414;0.018;2023-08-06T03:12:41;11.80;99.90
42187;DHT22;27858;51.414;0.018;2023-08-06T03:15:07;11.80;99.90
42187;DHT22;27858;51.414;0.018;2023-08-06T03:17:34;11.80;99.90
42187;DHT22;27858;51.414;0.018;2023-08-06T03:20:01;11.80;99.90
42187;DHT22;27858;51.414;0.018;2023-08-06T03:22:27;11.80;99.90
42187;DHT22;27858;51.414;0.018;2023-08-06T03:24:54;11.80;99.90
42187;DHT22;27858;51.414;0.018;2023-08-06T03:27:21;11.70;99.90
42187;DHT22;27858;51.414;0.018;2023-08-06T03:29:50;11.70;99.90
42187;DHT22;27858;51.414;0.018;2023-08-06T03:32:17;11.70;99.90
42187;DHT22;27858;51.414;0.018;2023-08-06T03:34:44;11.70;99.90
42187;DHT22;27858;51.414;0.018;2023-08-06T03:37:11;11.70;99.90
42187;DHT22;27858;51.414;0.018;2023-08-06T03:39:38;11.60;99.90
42187;DHT22;27858;51.414;0.018;2023-08-06T03:42:04;11.60;99.90
42187;DHT22;27858;51.414;0.018;2023-08-06T03:44:31;11.60;99.90
42187;DHT22;27858;51.414;0.018;2023-08-06T03:46:58;11.60;99.90
42187;DHT22;27858;51.414;0.018;2023-08-06T03:49:24;11.60;99.90
42187;DHT22;27858;51.414;0.018;2023-08-06T03:51:51;11.60;99.90
42187;DHT22;27858;51.414;0.018;2023-08-06T03:54:18;11.60;99.90
42187;DHT22;27858;51.414;0.018;2023-08-06T03:56:45;11.50;99.90
42187;DHT22;27858;51.414;0.018;2023-08-06T03:59:11;11.50;99.90
42187;DHT22;27858;51.414;0.018;2023-08-06T04:01:38;11.50;99.90
42187;DHT22;27858;51.414;0.018;2023-08-06T04:04:05;11.50;99.90
42187;DHT22;27858;51.414;0.018;2023-08-06T04:06:31;11.50;99.90
42187;DHT22;27858;51.414;0.018;2023-08-06T04:08:58;11.50;99.90
42187;DHT22;27858;51.414;0.018;2023-08-06T04:11:25;11.50;99.90
42187;DHT22;27858;51.414;0.018;2023-08-06T04:13:52;11.50;99.90
42187;DHT22;27858;51.414;0.018;2023-08-06T04:16:18;11.40;99.90
42187;DHT22;27858;51.414;0.018;2023-08-06T04:18:45;11.40;99.90
42187;DHT22;27858;51.414;0.018;2023-08-06T04:21:12;11.50;99.90
42187;DHT22;27858;51.414;0.018;2023-08-06T04:23:39;11.40;99.90
42187;DHT22;27858;51.414;0.018;2023-08-06T04:26:05;11.40;99.90
42187;DHT22;27858;51.414;0.018;2023-08-06T04:28:32;11.40;99.90
42187;DHT22;27858;51.414;0.018;2023-08-06T04:30:59;11.40;99.90
42187;DHT22;27858;51.414;0.018;2023-08-06T04:33:26;11.40;99.90
42187;DHT22;27858;51.414;0.018;2023-08-06T04:35:53;11.30;99.90
42187;DHT22;27858;51.414;0.018;2023-08-06T04:38:20;11.40;99.90
42187;DHT22;27858;51.414;0.018;2023-08-06T04:40:47;11.30;99.90
42187;DHT22;27858;51.414;0.018;2023-08-06T04:43:13;11.30;99.90
42187;DHT22;27858;51.414;0.018;2023-08-06T04:45:45;11.30;99.90
42187;DHT22;27858;51.414;0.018;2023-08-06T04:48:12;11.30;99.90
42187;DHT22;27858;51.414;0.018;2023-08-06T04:50:42;11.20;99.90
42187;DHT22;27858;51.414;0.018;2023-08-06T04:53:09;11.20;99.90
42187;DHT22;27858;51.414;0.018;2023-08-06T04:55:36;11.20;99.90
42187;DHT22;27858;51.414;0.018;2023-08-06T04:58:02;11.20;99.90
42187;DHT22;27858;51.414;0.018;2023-08-06T05:00:29;11.30;99.90
42187;DHT22;27858;51.414;0.018;2023-08-06T05:02:56;11.20;99.90
42187;DHT22;27858;51.414;0.018;2023-08-06T05:05:23;11.20;99.90
42187;DHT22;27858;51.414;0.018;2023-08-06T05:07:50;11.30;99.90
42187;DHT22;27858;51.414;0.018;2023-08-06T05:10:17;11.20;99.90
42187;DHT22;27858;51.414;0.018;2023-08-06T05:12:43;11.20;99.90
42187;DHT22;27858;51.414;0.018;2023-08-06T05:15:10;11.20;99.90
42187;DHT22;27858;51.414;0.018;2023-08-06T05:17:37;11.30;99.90
42187;DHT22;27858;51.414;0.018;2023-08-06T05:20:03;11.20;99.90
42187;DHT22;27858;51.414;0.018;2023-08-06T05:22:30;11.30;99.90
42187;DHT22;27858;51.414;0.018;2023-08-06T05:24:57;11.20;99.90
42187;DHT22;27858;51.414;0.018;2023-08-06T05:27:24;11.30;99.90
42187;DHT22;27858;51.414;0.018;2023-08-06T05:29:54;11.30;99.90
42187;DHT22;27858;51.414;0.018;2023-08-06T05:32:21;11.40;99.90
42187;DHT22;27858;51.414;0.018;2023-08-06T05:34:48;11.40;99.90
42187;DHT22;27858;51.414;0.018;2023-08-06T05:37:14;11.40;99.90
42187;DHT22;27858;51.414;0.018;2023-08-06T05:39:41;11.40;99.90
42187;DHT22;27858;51.414;0.018;2023-08-06T05:42:08;11.50;99.90
42187;DHT22;27858;51.414;0.018;2023-08-06T05:44:34;11.50;99.90
42187;DHT22;27858;51.414;0.018;2023-08-06T05:47:01;11.50;99.90
42187;DHT22;27858;51.414;0.018;2023-08-06T05:49:28;11.60;99.90
42187;DHT22;27858;51.414;0.018;2023-08-06T05:51:54;11.60;99.90
42187;DHT22;27858;51.414;0.018;2023-08-06T05:54:21;11.70;99.90
42187;DHT22;27858;51.414;0.018;2023-08-06T05:56:48;11.70;99.90
42187;DHT22;27858;51.414;0.018;2023-08-06T05:59:14;11.70;99.90
42187;DHT22;27858;51.414;0.018;2023-08-06T06:01:41;11.70;99.90
42187;DHT22;27858;51.414;0.018;2023-08-06T06:04:08;11.80;99.90
42187;DHT22;27858;51.414;0.018;2023-08-06T06:06:34;11.80;99.90
42187;DHT22;27858;51.414;0.018;2023-08-06T06:09:02;11.80;99.90
42187;DHT22;27858;51.414;0.018;2023-08-06T06:11:28;11.90;99.90
42187;DHT22;27858;51.414;0.018;2023-08-06T06:13:55;11.90;99.90
42187;DHT22;27858;51.414;0.018;2023-08-06T06:16:22;12.00;99.90
42187;DHT22;27858;51.414;0.018;2023-08-06T06:18:49;12.00;99.90
42187;DHT22;27858;51.414;0.018;2023-08-06T06:21:16;12.00;99.90
42187;DHT22;27858;51.414;0.018;2023-08-06T06:23:45;12.10;99.90
42187;DHT22;27858;51.414;0.018;2023-08-06T06:26:12;12.20;99.90
42187;DHT22;27858;51.414;0.018;2023-08-06T06:28:41;12.20;99.90
42187;DHT22;27858;51.414;0.018;2023-08-06T06:31:08;12.20;99.90
42187;DHT22;27858;51.414;0.018;2023-08-06T06:33:35;12.30;99.90
42187;DHT22;27858;51.414;0.018;2023-08-06T06:36:02;12.40;99.90
42187;DHT22;27858;51.414;0.018;2023-08-06T06:38:34;12.40;99.90
42187;DHT22;27858;51.414;0.018;2023-08-06T06:41:01;12.50;99.90
42187;DHT22;27858;51.414;0.018;2023-08-06T06:43:30;12.50;99.90
42187;DHT22;27858;51.414;0.018;2023-08-06T06:45:56;12.60;99.90
42187;DHT22;27858;51.414;0.018;2023-08-06T06:48:28;12.70;99.90
42187;DHT22;27858;51.414;0.018;2023-08-06T06:50:55;12.70;99.90
42187;DHT22;27858;51.414;0.018;2023-08-06T06:53:22;12.80;99.90
42187;DHT22;27858;51.414;0.018;2023-08-06T06:55:55;12.90;99.90
42187;DHT22;27858;51.414;0.018;2023-08-06T06:58:22;12.90;99.90
42187;DHT22;27858;51.414;0.018;2023-08-06T07:00:48;13.00;99.90
42187;DHT22;27858;51.414;0.018;2023-08-06T07:03:15;13.00;99.90
42187;DHT22;27858;51.414;0.018;2023-08-06T07:05:43;13.00;99.90
42187;DHT22;27858;51.414;0.018;2023-08-06T07:08:09;13.10;99.90
42187;DHT22;27858;51.414;0.018;2023-08-06T07:10:36;13.10;99.90
42187;DHT22;27858;51.414;0.018;2023-08-06T07:13:03;13.20;99.90
42187;DHT22;27858;51.414;0.018;2023-08-06T07:15:30;13.20;99.90
42187;DHT22;27858;51.414;0.018;2023-08-06T07:17:57;13.30;99.90
42187;DHT22;27858;51.414;0.018;2023-08-06T07:20:24;13.40;99.90
42187;DHT22;27858;51.414;0.018;2023-08-06T07:22:51;13.40;99.90
42187;DHT22;27858;51.414;0.018;2023-08-06T07:25:17;13.50;99.90
42187;DHT22;27858;51.414;0.018;2023-08-06T07:27:44;13.50;99.90
42187;DHT22;27858;51.414;0.018;2023-08-06T07:30:11;13.60;99.90
42187;DHT22;27858;51.414;0.018;2023-08-06T07:32:38;13.70;99.90
42187;DHT22;27858;51.414;0.018;2023-08-06T07:35:05;13.80;99.90
42187;DHT22;27858;51.414;0.018;2023-08-06T07:37:32;13.90;99.90
42187;DHT22;27858;51.414;0.018;2023-08-06T07:39:59;13.90;99.90
42187;DHT22;27858;51.414;0.018;2023-08-06T07:42:25;14.00;99.90
42187;DHT22;27858;51.414;0.018;2023-08-06T07:44:53;14.10;99.90
42187;DHT22;27858;51.414;0.018;2023-08-06T07:47:20;14.10;99.90
42187;DHT22;27858;51.414;0.018;2023-08-06T07:49:47;14.20;99.90
42187;DHT22;27858;51.414;0.018;2023-08-06T07:52:14;14.20;99.90
42187;DHT22;27858;51.414;0.018;2023-08-06T07:54:41;14.30;99.90
42187;DHT22;27858;51.414;0.018;2023-08-06T07:57:08;14.30;99.90
42187;DHT22;27858;51.414;0.018;2023-08-06T07:59:34;14.40;99.90
42187;DHT22;27858;51.414;0.018;2023-08-06T08:02:02;14.40;99.90
42187;DHT22;27858;51.414;0.018;2023-08-06T08:04:28;14.50;99.90
42187;DHT22;27858;51.414;0.018;2023-08-06T08:06:55;14.60;99.90
42187;DHT22;27858;51.414;0.018;2023-08-06T08:09:22;14.50;99.90
42187;DHT22;27858;51.414;0.018;2023-08-06T08:11:48;14.70;99.90
42187;DHT22;27858;51.414;0.018;2023-08-06T08:14:17;14.70;99.90
42187;DHT22;27858;51.414;0.018;2023-08-06T08:16:44;14.70;99.90
42187;DHT22;27858;51.414;0.018;2023-08-06T08:19:10;14.80;99.90
42187;DHT22;27858;51.414;0.018;2023-08-06T08:21:37;14.90;99.90
42187;DHT22;27858;51.414;0.018;2023-08-06T08:24:04;14.90;99.90
42187;DHT22;27858;51.414;0.018;2023-08-06T08:26:31;15.00;99.90
42187;DHT22;27858;51.414;0.018;2023-08-06T08:28:57;15.10;99.90
42187;DHT22;27858;51.414;0.018;2023-08-06T08:31:24;15.10;99.90
42187;DHT22;27858;51.414;0.018;2023-08-06T08:33:51;15.10;99.90
42187;DHT22;27858;51.414;0.018;2023-08-06T08:36:20;15.30;99.90
42187;DHT22;27858;51.414;0.018;2023-08-06T08:38:47;15.40;99.90
42187;DHT22;27858;51.414;0.018;2023-08-06T08:41:13;15.40;99.90
42187;DHT22;27858;51.414;0.018;2023-08-06T08:43:42;15.50;99.90
42187;DHT22;27858;51.414;0.018;2023-08-06T08:46:09;15.60;99.90
42187;DHT22;27858;51.414;0.018;2023-08-06T08:48:36;15.60;99.90
42187;DHT22;27858;51.414;0.018;2023-08-06T08:51:02;15.60;99.90
42187;DHT22;27858;51.414;0.018;2023-08-06T08:53:29;15.70;99.90
42187;DHT22;27858;51.414;0.018;2023-08-06T08:55:56;15.80;99.90
42187;DHT22;27858;51.414;0.018;2023-08-06T08:58:23;16.00;99.90
42187;DHT22;27858;51.414;0.018;2023-08-06T09:00:50;16.00;99.90
42187;DHT22;27858;51.414;0.018;2023-08-06T09:03:17;16.00;99.90
42187;DHT22;27858;51.414;0.018;2023-08-06T09:05:44;16.10;99.90
42187;DHT22;27858;51.414;0.018;2023-08-06T09:08:12;16.10;99.90
42187;DHT22;27858;51.414;0.018;2023-08-06T09:10:42;16.20;99.90
42187;DHT22;27858;51.414;0.018;2023-08-06T09:13:09;16.20;99.90
42187;DHT22;27858;51.414;0.018;2023-08-06T09:15:38;16.30;99.90
42187;DHT22;27858;51.414;0.018;2023-08-06T09:18:09;16.40;99.90
42187;DHT22;27858;51.414;0.018;2023-08-06T09:20:37;16.60;99.90
42187;DHT22;27858;51.414;0.018;2023-08-06T09:23:07;16.60;99.90
42187;DHT22;27858;51.414;0.018;2023-08-06T09:25:36;16.40;99.90
42187;DHT22;27858;51.414;0.018;2023-08-06T09:28:04;16.50;99.90
42187;DHT22;27858;51.414;0.018;2023-08-06T09:30:31;16.60;99.90
42187;DHT22;27858;51.414;0.018;2023-08-06T09:32:59;16.80;99.90
42187;DHT22;27858;51.414;0.018;2023-08-06T09:35:29;16.90;99.90
42187;DHT22;27858;51.414;0.018;2023-08-06T09:38:07;16.90;99.50
42187;DHT22;27858;51.414;0.018;2023-08-06T09:40:34;17.10;99.90
42187;DHT22;27858;51.414;0.018;2023-08-06T09:43:01;17.20;99.90
42187;DHT22;27858;51.414;0.018;2023-08-06T09:47:59;17.40;94.30
42187;DHT22;27858;51.414;0.018;2023-08-06T09:50:30;17.50;88.60
42187;DHT22;27858;51.414;0.018;2023-08-06T09:52:58;17.60;83.00
42187;DHT22;27858;51.414;0.018;2023-08-06T09:55:25;17.60;54.50
42187;DHT22;27858;51.414;0.018;2023-08-06T09:57:55;17.60;64.30
42187;DHT22;27858;51.414;0.018;2023-08-06T10:00:22;17.60;48.40
42187;DHT22;27858;51.414;0.018;2023-08-06T10:02:53;17.70;26.50
42187;DHT22;27858;51.414;0.018;2023-08-06T10:05:22;17.60;26.90
42187;DHT22;27858;51.414;0.018;2023-08-06T10:07:49;17.50;22.00
42187;DHT22;27858;51.414;0.018;2023-08-06T10:10:17;17.70;56.20
42187;DHT22;27858;51.414;0.018;2023-08-06T10:12:47;17.80;62.50
42187;DHT22;27858;51.414;0.018;2023-08-06T10:15:16;18.00;72.60
42187;DHT22;27858;51.414;0.018;2023-08-06T10:17:43;17.80;27.30
42187;DHT22;27858;51.414;0.018;2023-08-06T10:20:16;17.90;44.20
42187;DHT22;27858;51.414;0.018;2023-08-06T10:22:43;18.10;66.50
42187;DHT22;27858;51.414;0.018;2023-08-06T10:25:16;18.10;51.60
42187;DHT22;27858;51.414;0.018;2023-08-06T10:33:02;18.40;34.00
42187;DHT22;27858;51.414;0.018;2023-08-06T10:37:59;18.40;4.40
42187;DHT22;27858;51.414;0.018;2023-08-06T10:40:26;18.40;6.40
42187;DHT22;27858;51.414;0.018;2023-08-06T10:42:53;18.30;41.00
42187;DHT22;27858;51.414;0.018;2023-08-06T10:45:20;18.30;55.70
42187;DHT22;27858;51.414;0.018;2023-08-06T10:47:47;18.30;87.00
42187;DHT22;27858;51.414;0.018;2023-08-06T10:50:15;18.10;78.40
42187;DHT22;27858;51.414;0.018;2023-08-06T10:52:45;18.10;77.70
42187;DHT22;27858;51.414;0.018;2023-08-06T10:55:13;18.00;88.80
42187;DHT22;27858;51.414;0.018;2023-08-06T10:57:40;18.00;97.20
42187;DHT22;27858;51.414;0.018;2023-08-06T11:00:07;17.90;92.00
42187;DHT22;27858;51.414;0.018;2023-08-06T11:02:41;17.70;94.20
42187;DHT22;27858;51.414;0.018;2023-08-06T11:05:09;17.60;95.00
42187;DHT22;27858;51.414;0.018;2023-08-06T11:07:36;17.50;99.90
42187;DHT22;27858;51.414;0.018;2023-08-06T11:12:33;17.60;97.80
42187;DHT22;27858;51.414;0.018;2023-08-06T11:15:01;17.80;99.90
42187;DHT22;27858;51.414;0.018;2023-08-06T11:17:28;17.80;91.80
42187;DHT22;27858;51.414;0.018;2023-08-06T11:19:55;17.50;91.50
42187;DHT22;27858;51.414;0.018;2023-08-06T11:22:22;17.30;99.90
42187;DHT22;27858;51.414;0.018;2023-08-06T11:24:49;17.10;99.90
42187;DHT22;27858;51.414;0.018;2023-08-06T11:27:16;17.00;99.90
42187;DHT22;27858;51.414;0.018;2023-08-06T11:29:43;17.10;99.90
42187;DHT22;27858;51.414;0.018;2023-08-06T11:32:10;17.10;99.90
42187;DHT22;27858;51.414;0.018;2023-08-06T11:34:40;17.10;99.90
42187;DHT22;27858;51.414;0.018;2023-08-06T11:37:09;17.10;99.90
42187;DHT22;27858;51.414;0.018;2023-08-06T11:39:37;17.20;99.90
42187;DHT22;27858;51.414;0.018;2023-08-06T11:42:04;17.20;99.90
42187;DHT22;27858;51.414;0.018;2023-08-06T11:44:32;17.50;99.90
42187;DHT22;27858;51.414;0.018;2023-08-06T11:47:03;17.60;99.90
42187;DHT22;27858;51.414;0.018;2023-08-06T11:49:37;17.60;99.90
42187;DHT22;27858;51.414;0.018;2023-08-06T11:54:40;17.70;99.90
42187;DHT22;27858;51.414;0.018;2023-08-06T11:57:07;18.10;99.90
42187;DHT22;27858;51.414;0.018;2023-08-06T11:59:34;18.20;99.90
42187;DHT22;27858;51.414;0.018;2023-08-06T12:02:02;18.50;99.90
42187;DHT22;27858;51.414;0.018;2023-08-06T12:04:29;18.50;99.90
42187;DHT22;27858;51.414;0.018;2023-08-06T12:06:55;18.10;99.90
42187;DHT22;27858;51.414;0.018;2023-08-06T12:09:30;18.20;99.20
42187;DHT22;27858;51.414;0.018;2023-08-06T12:11:57;18.30;98.30
42187;DHT22;27858;51.414;0.018;2023-08-06T12:14:27;18.20;93.00
42187;DHT22;27858;51.414;0.018;2023-08-06T12:16:54;18.10;98.50
42187;DHT22;27858;51.414;0.018;2023-08-06T12:19:21;18.00;93.70
42187;DHT22;27858;51.414;0.018;2023-08-06T12:21:52;18.10;97.60
42187;DHT22;27858;51.414;0.018;2023-08-06T12:24:19;17.90;94.20
42187;DHT22;27858;51.414;0.018;2023-08-06T12:26:46;18.00;99.90
42187;DHT22;27858;51.414;0.018;2023-08-06T12:29:12;17.90;95.90
42187;DHT22;27858;51.414;0.018;2023-08-06T12:31:39;17.60;94.20
42187;DHT22;27858;51.414;0.018;2023-08-06T12:34:06;17.60;98.10
42187;DHT22;27858;51.414;0.018;2023-08-06T12:36:32;17.60;99.70
42187;DHT22;27858;51.414;0.018;2023-08-06T12:38:59;17.60;97.40
42187;DHT22;27858;51.414;0.018;2023-08-06T12:41:26;17.60;99.90
42187;DHT22;27858;51.414;0.018;2023-08-06T12:43:53;17.90;96.70
42187;DHT22;27858;51.414;0.018;2023-08-06T12:46:20;17.90;93.20
42187;DHT22;27858;51.414;0.018;2023-08-06T12:48:50;18.10;95.60
42187;DHT22;27858;51.414;0.018;2023-08-06T12:51:17;18.20;99.90
42187;DHT22;27858;51.414;0.018;2023-08-06T12:53:44;18.60;99.90
42187;DHT22;27858;51.414;0.018;2023-08-06T12:56:11;18.90;93.70
42187;DHT22;27858;51.414;0.018;2023-08-06T12:58:38;19.00;85.80
42187;DHT22;27858;51.414;0.018;2023-08-06T13:01:06;19.20;75.60
42187;DHT22;27858;51.414;0.018;2023-08-06T13:03:33;18.90;91.50
42187;DHT22;27858;51.414;0.018;2023-08-06T13:05:59;19.00;83.20
42187;DHT22;27858;51.414;0.018;2023-08-06T13:08:27;19.20;81.30
42187;DHT22;27858;51.414;0.018;2023-08-06T13:10:54;19.50;73.00
42187;DHT22;27858;51.414;0.018;2023-08-06T13:13:21;19.40;59.50
42187;DHT22;27858;51.414;0.018;2023-08-06T13:15:48;19.20;43.10
42187;DHT22;27858;51.414;0.018;2023-08-06T13:18:14;19.20;53.20
42187;DHT22;27858;51.414;0.018;2023-08-06T13:20:41;18.60;41.40
42187;DHT22;27858;51.414;0.018;2023-08-06T13:23:08;18.40;66.70
42187;DHT22;27858;51.414;0.018;2023-08-06T13:25:35;18.30;77.00
42187;DHT22;27858;51.414;0.018;2023-08-06T13:28:04;18.20;99.90
42187;DHT22;27858;51.414;0.018;2023-08-06T13:30:31;18.20;99.90
42187;DHT22;27858;51.414;0.018;2023-08-06T13:32:58;17.70;99.90
42187;DHT22;27858;51.414;0.018;2023-08-06T13:35:25;17.40;99.90
42187;DHT22;27858;51.414;0.018;2023-08-06T13:37:52;17.40;99.90
42187;DHT22;27858;51.414;0.018;2023-08-06T13:40:20;17.90;99.90
42187;DHT22;27858;51.414;0.018;2023-08-06T13:42:47;17.90;99.90
42187;DHT22;27858;51.414;0.018;2023-08-06T13:45:14;18.40;99.90
42187;DHT22;27858;51.414;0.018;2023-08-06T13:47:41;18.50;99.90
42187;DHT22;27858;51.414;0.018;2023-08-06T13:50:08;18.50;99.90
42187;DHT22;27858;51.414;0.018;2023-08-06T13:52:35;18.50;99.90
42187;DHT22;27858;51.414;0.018;2023-08-06T13:55:02;18.40;99.90
42187;DHT22;27858;51.414;0.018;2023-08-06T13:57:30;18.40;99.90
42187;DHT22;27858;51.414;0.018;2023-08-06T13:59:57;18.40;99.90
42187;DHT22;27858;51.414;0.018;2023-08-06T14:02:27;18.50;99.90
42187;DHT22;27858;51.414;0.018;2023-08-06T14:04:55;18.50;99.90
42187;DHT22;27858;51.414;0.018;2023-08-06T14:07:21;18.90;99.90
42187;DHT22;27858;51.414;0.018;2023-08-06T14:09:48;19.30;99.90
42187;DHT22;27858;51.414;0.018;2023-08-06T14:12:15;19.60;71.00
42187;DHT22;27858;51.414;0.018;2023-08-06T14:14:42;20.20;99.90
42187;DHT22;27858;51.414;0.018;2023-08-06T14:17:09;20.20;11.50
42187;DHT22;27858;51.414;0.018;2023-08-06T14:19:37;20.30;5.90
42187;DHT22;27858;51.414;0.018;2023-08-06T14:22:06;20.80;21.40
42187;DHT22;27858;51.414;0.018;2023-08-06T14:24:35;20.90;1.00
42187;DHT22;27858;51.414;0.018;2023-08-06T14:27:02;20.80;1.00
42187;DHT22;27858;51.414;0.018;2023-08-06T14:29:30;21.20;1.00
42187;DHT22;27858;51.414;0.018;2023-08-06T14:31:57;21.30;1.00
42187;DHT22;27858;51.414;0.018;2023-08-06T14:34:24;21.20;1.00
42187;DHT22;27858;51.414;0.018;2023-08-06T14:36:51;20.90;1.00
42187;DHT22;27858;51.414;0.018;2023-08-06T14:39:18;20.60;1.00
42187;DHT22;27858;51.414;0.018;2023-08-06T14:41:45;20.50;1.00
42187;DHT22;27858;51.414;0.018;2023-08-06T14:44:11;20.40;7.20
42187;DHT22;27858;51.414;0.018;2023-08-06T14:46:38;20.00;1.00
42187;DHT22;27858;51.414;0.018;2023-08-06T14:49:05;20.00;16.60
42187;DHT22;27858;51.414;0.018;2023-08-06T14:51:32;19.80;1.90
42187;DHT22;27858;51.414;0.018;2023-08-06T14:54:01;19.80;6.30
42187;DHT22;27858;51.414;0.018;2023-08-06T14:56:28;20.00;12.10
42187;DHT22;27858;51.414;0.018;2023-08-06T14:58:54;20.40;2.30
42187;DHT22;27858;51.414;0.018;2023-08-06T15:01:21;20.70;1.00
42187;DHT22;27858;51.414;0.018;2023-08-06T15:03:48;20.70;1.00
42187;DHT22;27858;51.414;0.018;2023-08-06T15:06:14;20.40;1.00
42187;DHT22;27858;51.414;0.018;2023-08-06T15:08:41;20.20;1.00
42187;DHT22;27858;51.414;0.018;2023-08-06T15:11:10;20.10;9.90
42187;DHT22;27858;51.414;0.018;2023-08-06T15:13:37;20.00;5.80
42187;DHT22;27858;51.414;0.018;2023-08-06T15:16:04;19.80;3.70
42187;DHT22;27858;51.414;0.018;2023-08-06T15:18:30;19.60;1.00
42187;DHT22;27858;51.414;0.018;2023-08-06T15:20:58;19.70;1.90
42187;DHT22;27858;51.414;0.018;2023-08-06T15:23:24;19.70;16.80
42187;DHT22;27858;51.414;0.018;2023-08-06T15:25:51;20.40;10.40
42187;DHT22;27858;51.414;0.018;2023-08-06T15:28:18;20.40;1.00
42187;DHT22;27858;51.414;0.018;2023-08-06T15:30:49;20.20;9.80
42187;DHT22;27858;51.414;0.018;2023-08-06T15:33:17;20.50;1.00
42187;DHT22;27858;51.414;0.018;2023-08-06T15:35:44;20.90;1.00
42187;DHT22;27858;51.414;0.018;2023-08-06T15:38:10;20.70;1.00
42187;DHT22;27858;51.414;0.018;2023-08-06T15:40:37;20.80;1.00
42187;DHT22;27858;51.414;0.018;2023-08-06T15:43:04;21.40;1.00
42187;DHT22;27858;51.414;0.018;2023-08-06T15:45:32;22.20;1.00
42187;DHT22;27858;51.414;0.018;2023-08-06T15:47:59;22.90;1.00
42187;DHT22;27858;51.414;0.018;2023-08-06T15:50:25;23.50;1.00
42187;DHT22;27858;51.414;0.018;2023-08-06T15:52:52;23.60;99.90